sensor_id;sensor_type;location;lat;lon;timestamp;pressure;altitude;pressure_sealevel;temperature;humidity
14902;BME280;7542;49.078;9.194;2023-04-20T00:00:55;98616.34;;;28.02;33.14
14902;BME280;7542;49.078;9.194;2023-04-20T00:01:58;98627.94;;;28.03;32.96
14902;BME280;7542;49.078;9.194;2023-04-20T00:03:06;98614.16;;;28.05;33.10
14902;BME280;7542;49.078;9.194;2023-04-20T00:04:08;98613.66;;;28.02;33.13
14902;BME280;7542;49.078;9.194;2023-04-20T00:05:11;98616.09;;;27.99;33.06
14902;BME280;7542;49.078;9.194;2023-04-20T00:06:13;98615.53;;;28.02;33.07
14902;BME280;7542;49.078;9.194;2023-04-20T00:07:16;98609.84;;;28.04;33.06
14902;BME280;7542;49.078;9.194;2023-04-20T00:08:18;98616.84;;;28.05;32.87
14902;BME280;7542;49.078;9.194;2023-04-20T00:09:20;98602.56;;;28.04;32.97
14902;BME280;7542;49.078;9.194;2023-04-20T00:10:22;98611.75;;;28.03;32.89
14902;BME280;7542;49.078;9.194;2023-04-20T00:11:23;98602.56;;;28.04;32.96
14902;BME280;7542;49.078;9.194;2023-04-20T00:12:26;98603.66;;;28.03;32.75
14902;BME280;7542;49.078;9.194;2023-04-20T00:13:27;98607.16;;;28.04;32.94
14902;BME280;7542;49.078;9.194;2023-04-20T00:14:29;98607.16;;;28.04;32.86
14902;BME280;7542;49.078;9.194;2023-04-20T00:15:32;98604.19;;;28.05;32.86
14902;BME280;7542;49.078;9.194;2023-04-20T00:16:34;98595.59;;;28.03;32.68
14902;BME280;7542;49.078;9.194;2023-04-20T00:17:37;98595.88;;;28.01;32.60
14902;BME280;7542;49.078;9.194;2023-04-20T00:18:40;98582.09;;;28.03;32.79
14902;BME280;7542;49.078;9.194;2023-04-20T00:19:42;98588.59;;;28.02;32.72
14902;BME280;7542;49.078;9.194;2023-04-20T00:20:43;98588.59;;;28.02;32.79
14902;BME280;7542;49.078;9.194;2023-04-20T00:21:47;98584.00;;;28.02;32.87
14902;BME280;7542;49.078;9.194;2023-04-20T00:22:49;98585.59;;;28.04;32.74
14902;BME280;7542;49.078;9.194;2023-04-20T00:23:51;98587.78;;;28.01;32.64
14902;BME280;7542;49.078;9.194;2023-04-20T00:24:53;98580.22;;;28.04;32.65
14902;BME280;7542;49.078;9.194;2023-04-20T00:25:55;98582.41;;;28.01;32.54
14902;BME280;7542;49.078;9.194;2023-04-20T00:26:57;98584.00;;;28.02;32.60
14902;BME280;7542;49.078;9.194;2023-04-20T00:27:59;98582.41;;;28.01;32.72
14902;BME280;7542;49.078;9.194;2023-04-20T00:29:01;98577.81;;;28.02;32.44
14902;BME280;7542;49.078;9.194;2023-04-20T00:30:03;98580.50;;;28.02;32.52
14902;BME280;7542;49.078;9.194;2023-04-20T00:31:05;98575.09;;;28.02;32.46
14902;BME280;7542;49.078;9.194;2023-04-20T00:32:07;98572.69;;;28.00;32.55
14902;BME280;7542;49.078;9.194;2023-04-20T00:33:09;98575.41;;;28.00;32.41
14902;BME280;7542;49.078;9.194;2023-04-20T00:34:11;98563.78;;;28.00;32.57
14902;BME280;7542;49.078;9.194;2023-04-20T00:35:13;98570.00;;;28.00;32.49
14902;BME280;7542;49.078;9.194;2023-04-20T00:36:15;98567.56;;;27.99;32.42
14902;BME280;7542;49.078;9.194;2023-04-20T00:37:17;98565.66;;;27.99;32.19
14902;BME280;7542;49.078;9.194;2023-04-20T00:38:19;98566.75;;;27.98;32.32
14902;BME280;7542;49.078;9.194;2023-04-20T00:39:20;98566.75;;;27.98;32.39
14902;BME280;7542;49.078;9.194;2023-04-20T00:40:22;98561.38;;;27.98;32.30
14902;BME280;7542;49.078;9.194;2023-04-20T00:41:24;98563.25;;;27.98;32.39
14902;BME280;7542;49.078;9.194;2023-04-20T00:42:26;98560.56;;;27.98;32.70
14902;BME280;7542;49.078;9.194;2023-04-20T00:43:28;98565.97;;;27.98;32.27
14902;BME280;7542;49.078;9.194;2023-04-20T00:44:30;98559.47;;;27.99;32.27
14902;BME280;7542;49.078;9.194;2023-04-20T00:45:32;98558.16;;;27.96;32.36
14902;BME280;7542;49.078;9.194;2023-04-20T00:46:33;98552.78;;;27.96;32.29
14902;BME280;7542;49.078;9.194;2023-04-20T00:47:35;98563.56;;;27.96;32.36
14902;BME280;7542;49.078;9.194;2023-04-20T00:48:37;98562.75;;;27.96;32.25
14902;BME280;7542;49.078;9.194;2023-04-20T00:49:39;98555.75;;;27.95;32.24
14902;BME280;7542;49.078;9.194;2023-04-20T00:50:41;98559.25;;;27.95;32.17
14902;BME280;7542;49.078;9.194;2023-04-20T00:51:43;98556.56;;;27.95;32.34
14902;BME280;7542;49.078;9.194;2023-04-20T00:52:46;98552.25;;;27.94;32.26
14902;BME280;7542;49.078;9.194;2023-04-20T00:53:48;98548.75;;;27.94;32.28
14902;BME280;7542;49.078;9.194;2023-04-20T00:54:50;98548.19;;;27.97;32.16
14902;BME280;7542;49.078;9.194;2023-04-20T00:55:52;98541.47;;;27.94;32.29
14902;BME280;7542;49.078;9.194;2023-04-20T00:56:55;98544.47;;;27.93;32.11
14902;BME280;7542;49.078;9.194;2023-04-20T00:57:58;98535.56;;;27.92;32.14
14902;BME280;7542;49.078;9.194;2023-04-20T00:59:01;98544.16;;;27.94;32.07
14902;BME280;7542;49.078;9.194;2023-04-20T01:00:03;98540.97;;;27.92;32.16
14902;BME280;7542;49.078;9.194;2023-04-20T01:01:09;98541.75;;;27.93;32.16
14902;BME280;7542;49.078;9.194;2023-04-20T01:02:12;98547.97;;;27.93;31.89
14902;BME280;7542;49.078;9.194;2023-04-20T01:03:14;98546.09;;;27.89;32.12
14902;BME280;7542;49.078;9.194;2023-04-20T01:04:16;98544.22;;;27.89;32.05
14902;BME280;7542;49.078;9.194;2023-04-20T01:05:20;98537.47;;;27.92;32.13
14902;BME280;7542;49.078;9.194;2023-04-20T01:06:22;98544.75;;;27.91;32.17
14902;BME280;7542;49.078;9.194;2023-04-20T01:07:24;98540.44;;;27.90;32.02
14902;BME280;7542;49.078;9.194;2023-04-20T01:08:26;98540.44;;;27.90;32.15
14902;BME280;7542;49.078;9.194;2023-04-20T01:09:28;98535.06;;;27.90;32.15
14902;BME280;7542;49.078;9.194;2023-04-20T01:10:31;98533.44;;;27.89;32.08
14902;BME280;7542;49.078;9.194;2023-04-20T01:11:33;98534.50;;;27.88;32.17
14902;BME280;7542;49.078;9.194;2023-04-20T01:12:36;98536.94;;;27.90;32.06
14902;BME280;7542;49.078;9.194;2023-04-20T01:13:37;98535.31;;;27.89;32.05
14902;BME280;7542;49.078;9.194;2023-04-20T01:14:39;98529.13;;;27.88;32.01
14902;BME280;7542;49.078;9.194;2023-04-20T01:15:41;98530.72;;;27.89;32.10
14902;BME280;7542;49.078;9.194;2023-04-20T01:16:43;98522.94;;;27.88;32.05
14902;BME280;7542;49.078;9.194;2023-04-20T01:17:47;98521.31;;;27.87;31.98
14902;BME280;7542;49.078;9.194;2023-04-20T01:18:50;98517.03;;;27.86;32.05
14902;BME280;7542;49.078;9.194;2023-04-20T01:19:52;98515.13;;;27.86;31.96
14902;BME280;7542;49.078;9.194;2023-04-20T01:20:54;98517.84;;;27.86;31.96
14902;BME280;7542;49.078;9.194;2023-04-20T01:21:56;98525.41;;;27.84;31.99
14902;BME280;7542;49.078;9.194;2023-04-20T01:22:58;98510.84;;;27.85;31.93
14902;BME280;7542;49.078;9.194;2023-04-20T01:24:00;98513.81;;;27.84;31.91
14902;BME280;7542;49.078;9.194;2023-04-20T01:25:02;98513.53;;;27.85;31.93
14902;BME280;7542;49.078;9.194;2023-04-20T01:26:09;98514.34;;;27.86;31.95
14902;BME280;7542;49.078;9.194;2023-04-20T01:27:14;98515.13;;;27.86;31.83
14902;BME280;7542;49.078;9.194;2023-04-20T01:28:17;98510.84;;;27.85;31.86
14902;BME280;7542;49.078;9.194;2023-04-20T01:29:19;98515.41;;;27.85;31.77
14902;BME280;7542;49.078;9.194;2023-04-20T01:30:21;98518.69;;;27.82;31.80
14902;BME280;7542;49.078;9.194;2023-04-20T01:31:23;98516.50;;;27.84;31.95
14902;BME280;7542;49.078;9.194;2023-04-20T01:32:26;98508.72;;;27.82;31.81
14902;BME280;7542;49.078;9.194;2023-04-20T01:33:28;98514.91;;;27.83;31.99
14902;BME280;7542;49.078;9.194;2023-04-20T01:34:31;98509.00;;;27.81;31.82
14902;BME280;7542;49.078;9.194;2023-04-20T01:35:32;98508.47;;;27.79;31.87
14902;BME280;7542;49.078;9.194;2023-04-20T01:36:34;98508.22;;;27.80;31.78
14902;BME280;7542;49.078;9.194;2023-04-20T01:37:38;98511.69;;;27.81;31.86
14902;BME280;7542;49.078;9.194;2023-04-20T01:38:40;98503.91;;;27.79;31.85
14902;BME280;7542;49.078;9.194;2023-04-20T01:39:42;98503.91;;;27.79;31.75
14902;BME280;7542;49.078;9.194;2023-04-20T01:40:46;98504.72;;;27.80;31.73
14902;BME280;7542;49.078;9.194;2023-04-20T01:41:48;98501.22;;;27.79;31.88
14902;BME280;7542;49.078;9.194;2023-04-20T01:42:50;98500.13;;;27.80;31.73
14902;BME280;7542;49.078;9.194;2023-04-20T01:43:52;98495.81;;;27.79;31.79
14902;BME280;7542;49.078;9.194;2023-04-20T01:44:54;98493.13;;;27.79;31.72
14902;BME280;7542;49.078;9.194;2023-04-20T01:45:56;98495.81;;;27.79;31.71
14902;BME280;7542;49.078;9.194;2023-04-20T01:46:58;98489.59;;;27.79;31.78
14902;BME280;7542;49.078;9.194;2023-04-20T01:48:00;98490.69;;;27.78;31.52
14902;BME280;7542;49.078;9.194;2023-04-20T01:49:03;98483.69;;;27.77;31.71
14902;BME280;7542;49.078;9.194;2023-04-20T01:50:05;98488.28;;;27.76;31.65
14902;BME280;7542;49.078;9.194;2023-04-20T01:51:07;98485.59;;;27.76;31.73
14902;BME280;7542;49.078;9.194;2023-04-20T01:52:10;98480.19;;;27.76;31.77
14902;BME280;7542;49.078;9.194;2023-04-20T01:53:12;98484.50;;;27.77;31.76
14902;BME280;7542;49.078;9.194;2023-04-20T01:54:14;98478.88;;;27.73;31.81
14902;BME280;7542;49.078;9.194;2023-04-20T01:55:16;98470.50;;;27.75;31.71
14902;BME280;7542;49.078;9.194;2023-04-20T01:56:20;98475.09;;;27.75;31.74
14902;BME280;7542;49.078;9.194;2023-04-20T01:57:22;98476.72;;;27.76;31.54
14902;BME280;7542;49.078;9.194;2023-04-20T01:58:24;98475.09;;;27.75;31.56
14902;BME280;7542;49.078;9.194;2023-04-20T01:59:26;98475.91;;;27.75;31.53
14902;BME280;7542;49.078;9.194;2023-04-20T02:00:28;98474.81;;;27.76;31.72
14902;BME280;7542;49.078;9.194;2023-04-20T02:01:30;98472.13;;;27.76;31.70
14902;BME280;7542;49.078;9.194;2023-04-20T02:02:32;98477.00;;;27.74;31.62
14902;BME280;7542;49.078;9.194;2023-04-20T02:03:34;98471.91;;;27.72;31.65
14902;BME280;7542;49.078;9.194;2023-04-20T02:04:36;98469.19;;;27.72;31.64
14902;BME280;7542;49.078;9.194;2023-04-20T02:05:38;98466.50;;;27.72;31.64
14902;BME280;7542;49.078;9.194;2023-04-20T02:06:40;98471.09;;;27.72;31.58
14902;BME280;7542;49.078;9.194;2023-04-20T02:07:42;98469.50;;;27.71;31.65
14902;BME280;7542;49.078;9.194;2023-04-20T02:08:44;98470.59;;;27.70;31.69
14902;BME280;7542;49.078;9.194;2023-04-20T02:09:45;98464.91;;;27.71;31.52
14902;BME280;7542;49.078;9.194;2023-04-20T02:10:47;98469.19;;;27.72;31.57
14902;BME280;7542;49.078;9.194;2023-04-20T02:11:49;98475.38;;;27.73;31.55
14902;BME280;7542;49.078;9.194;2023-04-20T02:12:51;98462.50;;;27.70;31.65
14902;BME280;7542;49.078;9.194;2023-04-20T02:13:53;98465.19;;;27.70;31.49
14902;BME280;7542;49.078;9.194;2023-04-20T02:14:55;98470.59;;;27.70;31.53
14902;BME280;7542;49.078;9.194;2023-04-20T02:15:57;98453.06;;;27.67;31.60
14902;BME280;7542;49.078;9.194;2023-04-20T02:16:59;98458.19;;;27.69;31.63
14902;BME280;7542;49.078;9.194;2023-04-20T02:18:02;98455.22;;;27.70;31.68
14902;BME280;7542;49.078;9.194;2023-04-20T02:19:04;98454.41;;;27.70;31.54
14902;BME280;7542;49.078;9.194;2023-04-20T02:20:07;98455.75;;;27.67;31.44
14902;BME280;7542;49.078;9.194;2023-04-20T02:21:11;98444.72;;;27.69;31.38
14902;BME280;7542;49.078;9.194;2023-04-20T02:22:14;98452.28;;;27.67;31.55
14902;BME280;7542;49.078;9.194;2023-04-20T02:23:16;98450.38;;;27.67;31.52
14902;BME280;7542;49.078;9.194;2023-04-20T02:24:17;98450.38;;;27.67;31.54
14902;BME280;7542;49.078;9.194;2023-04-20T02:25:20;98443.66;;;27.65;31.60
14902;BME280;7542;49.078;9.194;2023-04-20T02:26:21;98442.59;;;27.66;31.49
14902;BME280;7542;49.078;9.194;2023-04-20T02:27:24;98443.66;;;27.65;31.45
14902;BME280;7542;49.078;9.194;2023-04-20T02:28:26;98444.47;;;27.65;31.54
14902;BME280;7542;49.078;9.194;2023-04-20T02:29:28;98444.47;;;27.65;31.40
14902;BME280;7542;49.078;9.194;2023-04-20T02:30:30;98442.03;;;27.64;31.43
14902;BME280;7542;49.078;9.194;2023-04-20T02:31:32;98446.38;;;27.65;31.42
14902;BME280;7542;49.078;9.194;2023-04-20T02:32:35;98446.63;;;27.63;31.40
14902;BME280;7542;49.078;9.194;2023-04-20T02:33:37;98444.72;;;27.64;31.44
14902;BME280;7542;49.078;9.194;2023-04-20T02:34:39;98442.03;;;27.64;31.52
14902;BME280;7542;49.078;9.194;2023-04-20T02:35:41;98440.97;;;27.65;31.43
14902;BME280;7542;49.078;9.194;2023-04-20T02:36:43;98436.13;;;27.62;31.57
14902;BME280;7542;49.078;9.194;2023-04-20T02:37:45;98433.16;;;27.63;31.46
14902;BME280;7542;49.078;9.194;2023-04-20T02:38:47;98439.63;;;27.62;31.46
14902;BME280;7542;49.078;9.194;2023-04-20T02:39:49;98434.25;;;27.62;31.52
14902;BME280;7542;49.078;9.194;2023-04-20T02:40:50;98430.75;;;27.62;31.39
14902;BME280;7542;49.078;9.194;2023-04-20T02:41:52;98434.25;;;27.62;31.42
14902;BME280;7542;49.078;9.194;2023-04-20T02:42:54;98431.84;;;27.61;31.47
14902;BME280;7542;49.078;9.194;2023-04-20T02:43:56;98425.66;;;27.60;31.44
14902;BME280;7542;49.078;9.194;2023-04-20T02:44:58;98430.25;;;27.60;31.53
14902;BME280;7542;49.078;9.194;2023-04-20T02:46:00;98432.13;;;27.59;31.26
14902;BME280;7542;49.078;9.194;2023-04-20T02:47:02;98419.47;;;27.60;31.37
14902;BME280;7542;49.078;9.194;2023-04-20T02:48:04;98427.53;;;27.60;31.42
14902;BME280;7542;49.078;9.194;2023-04-20T02:49:07;98431.03;;;27.60;31.28
14902;BME280;7542;49.078;9.194;2023-04-20T02:50:09;98417.84;;;27.59;31.31
14902;BME280;7542;49.078;9.194;2023-04-20T02:51:11;98422.16;;;27.60;31.35
14902;BME280;7542;49.078;9.194;2023-04-20T02:52:13;98419.75;;;27.58;31.44
14902;BME280;7542;49.078;9.194;2023-04-20T02:53:15;98418.66;;;27.59;31.34
14902;BME280;7542;49.078;9.194;2023-04-20T02:54:17;98413.56;;;27.58;31.45
14902;BME280;7542;49.078;9.194;2023-04-20T02:55:19;98411.13;;;27.56;31.18
14902;BME280;7542;49.078;9.194;2023-04-20T02:56:21;98415.47;;;27.57;31.33
14902;BME280;7542;49.078;9.194;2023-04-20T02:57:23;98416.25;;;27.58;31.39
14902;BME280;7542;49.078;9.194;2023-04-20T02:58:26;98419.22;;;27.56;31.31
14902;BME280;7542;49.078;9.194;2023-04-20T02:59:28;98417.31;;;27.57;31.29
14902;BME280;7542;49.078;9.194;2023-04-20T03:00:30;98417.31;;;27.57;31.32
14902;BME280;7542;49.078;9.194;2023-04-20T03:01:32;98409.53;;;27.55;31.30
14902;BME280;7542;49.078;9.194;2023-04-20T03:02:35;98415.72;;;27.56;31.40
14902;BME280;7542;49.078;9.194;2023-04-20T03:03:37;98415.72;;;27.56;31.29
14902;BME280;7542;49.078;9.194;2023-04-20T03:04:39;98409.22;;;27.57;31.30
14902;BME280;7542;49.078;9.194;2023-04-20T03:05:42;98404.13;;;27.55;31.41
14902;BME280;7542;49.078;9.194;2023-04-20T03:06:44;98413.03;;;27.56;31.23
14902;BME280;7542;49.078;9.194;2023-04-20T03:07:46;98403.63;;;27.53;31.39
14902;BME280;7542;49.078;9.194;2023-04-20T03:08:48;98407.63;;;27.56;31.43
14902;BME280;7542;49.078;9.194;2023-04-20T03:09:50;98410.09;;;27.52;31.14
14902;BME280;7542;49.078;9.194;2023-04-20T03:10:52;98412.00;;;27.52;31.49
14902;BME280;7542;49.078;9.194;2023-04-20T03:11:54;98414.41;;;27.53;31.60
14902;BME280;7542;49.078;9.194;2023-04-20T03:12:56;98410.63;;;27.54;31.50
14902;BME280;7542;49.078;9.194;2023-04-20T03:13:58;98406.03;;;27.55;31.50
14902;BME280;7542;49.078;9.194;2023-04-20T03:15:00;98407.13;;;27.54;31.50
14902;BME280;7542;49.078;9.194;2023-04-20T03:16:02;98406.31;;;27.53;31.53
14902;BME280;7542;49.078;9.194;2023-04-20T03:17:05;98409.00;;;27.53;31.61
14902;BME280;7542;49.078;9.194;2023-04-20T03:18:07;98406.59;;;27.52;31.49
14902;BME280;7542;49.078;9.194;2023-04-20T03:19:09;98403.91;;;27.52;31.63
14902;BME280;7542;49.078;9.194;2023-04-20T03:20:12;98399.63;;;27.51;31.42
14902;BME280;7542;49.078;9.194;2023-04-20T03:21:15;98402.31;;;27.51;31.62
14902;BME280;7542;49.078;9.194;2023-04-20T03:22:17;98404.19;;;27.50;31.60
14902;BME280;7542;49.078;9.194;2023-04-20T03:23:22;98399.63;;;27.51;31.53
14902;BME280;7542;49.078;9.194;2023-04-20T03:24:24;98401.78;;;27.49;31.67
14902;BME280;7542;49.078;9.194;2023-04-20T03:25:25;98408.78;;;27.50;31.49
14902;BME280;7542;49.078;9.194;2023-04-20T03:26:27;98406.09;;;27.50;31.70
14902;BME280;7542;49.078;9.194;2023-04-20T03:27:29;98411.19;;;27.51;31.63
14902;BME280;7542;49.078;9.194;2023-04-20T03:28:31;98404.50;;;27.49;31.67
14902;BME280;7542;49.078;9.194;2023-04-20T03:29:33;98404.50;;;27.49;31.65
14902;BME280;7542;49.078;9.194;2023-04-20T03:30:35;98414.75;;;27.47;31.60
14902;BME280;7542;49.078;9.194;2023-04-20T03:31:37;98412.06;;;27.47;31.73
14902;BME280;7542;49.078;9.194;2023-04-20T03:32:40;98412.84;;;27.47;31.46
14902;BME280;7542;49.078;9.194;2023-04-20T03:33:42;98405.84;;;27.46;31.34
14902;BME280;7542;49.078;9.194;2023-04-20T03:34:44;98406.94;;;27.45;31.62
14902;BME280;7542;49.078;9.194;2023-04-20T03:35:46;98404.22;;;27.45;31.49
14902;BME280;7542;49.078;9.194;2023-04-20T03:36:48;98407.72;;;27.45;31.64
14902;BME280;7542;49.078;9.194;2023-04-20T03:37:50;98404.22;;;27.45;31.65
14902;BME280;7542;49.078;9.194;2023-04-20T03:38:51;98404.22;;;27.45;31.65
14902;BME280;7542;49.078;9.194;2023-04-20T03:39:53;98395.34;;;27.44;31.68
14902;BME280;7542;49.078;9.194;2023-04-20T03:40:55;98402.13;;;27.42;31.54
14902;BME280;7542;49.078;9.194;2023-04-20T03:41:57;98401.53;;;27.45;31.47
14902;BME280;7542;49.078;9.194;2023-04-20T03:42:59;98401.81;;;27.43;31.61
14902;BME280;7542;49.078;9.194;2023-04-20T03:44:02;98399.13;;;27.43;31.42
14902;BME280;7542;49.078;9.194;2023-04-20T03:45:05;98399.94;;;27.44;31.56
14902;BME280;7542;49.078;9.194;2023-04-20T03:46:08;98405.63;;;27.42;31.55
14902;BME280;7542;49.078;9.194;2023-04-20T03:47:10;98401.81;;;27.43;31.53
14902;BME280;7542;49.078;9.194;2023-04-20T03:48:12;98397.03;;;27.40;31.45
14902;BME280;7542;49.078;9.194;2023-04-20T03:49:13;98396.22;;;27.40;31.54
14902;BME280;7542;49.078;9.194;2023-04-20T03:50:16;98392.16;;;27.42;31.39
14902;BME280;7542;49.078;9.194;2023-04-20T03:51:17;98388.13;;;27.40;31.45
14902;BME280;7542;49.078;9.194;2023-04-20T03:52:19;98382.47;;;27.41;31.39
14902;BME280;7542;49.078;9.194;2023-04-20T03:53:22;98388.94;;;27.40;31.46
14902;BME280;7542;49.078;9.194;2023-04-20T03:54:24;98385.44;;;27.40;31.40
14902;BME280;7542;49.078;9.194;2023-04-20T03:55:25;98387.34;;;27.39;31.31
14902;BME280;7542;49.078;9.194;2023-04-20T03:56:27;98376.56;;;27.39;31.42
14902;BME280;7542;49.078;9.194;2023-04-20T03:57:29;98384.94;;;27.38;31.41
14902;BME280;7542;49.078;9.194;2023-04-20T03:58:31;98389.53;;;27.37;31.37
14902;BME280;7542;49.078;9.194;2023-04-20T03:59:33;98387.34;;;27.39;31.42
14902;BME280;7542;49.078;9.194;2023-04-20T04:00:35;98386.81;;;27.37;31.43
14902;BME280;7542;49.078;9.194;2023-04-20T04:01:37;98389.53;;;27.37;31.22
14902;BME280;7542;49.078;9.194;2023-04-20T04:02:42;98389.00;;;27.35;31.44
14902;BME280;7542;49.078;9.194;2023-04-20T04:03:45;98391.41;;;27.37;31.32
14902;BME280;7542;49.078;9.194;2023-04-20T04:04:47;98391.41;;;27.37;31.35
14902;BME280;7542;49.078;9.194;2023-04-20T04:05:49;98406.47;;;27.38;31.39
14902;BME280;7542;49.078;9.194;2023-04-20T04:06:51;98401.63;;;27.35;31.26
14902;BME280;7542;49.078;9.194;2023-04-20T04:07:53;98415.38;;;27.33;31.30
14902;BME280;7542;49.078;9.194;2023-04-20T04:08:55;98407.03;;;27.35;31.43
14902;BME280;7542;49.078;9.194;2023-04-20T04:09:57;98410.81;;;27.34;31.39
14902;BME280;7542;49.078;9.194;2023-04-20T04:10:59;98400.84;;;27.34;31.46
14902;BME280;7542;49.078;9.194;2023-04-20T04:12:01;98403.00;;;27.32;31.28
14902;BME280;7542;49.078;9.194;2023-04-20T04:13:05;98398.44;;;27.33;31.39
14902;BME280;7542;49.078;9.194;2023-04-20T04:14:07;98403.81;;;27.33;31.22
14902;BME280;7542;49.078;9.194;2023-04-20T04:15:10;98403.00;;;27.32;31.29
14902;BME280;7542;49.078;9.194;2023-04-20T04:16:12;98399.53;;;27.32;31.33
14902;BME280;7542;49.078;9.194;2023-04-20T04:17:14;98400.31;;;27.32;31.21
14902;BME280;7542;49.078;9.194;2023-04-20T04:18:16;98400.31;;;27.32;31.34
14902;BME280;7542;49.078;9.194;2023-04-20T04:19:18;98407.59;;;27.32;31.25
14902;BME280;7542;49.078;9.194;2023-04-20T04:20:20;98401.13;;;27.33;31.18
14902;BME280;7542;49.078;9.194;2023-04-20T04:21:22;98395.22;;;27.31;31.12
14902;BME280;7542;49.078;9.194;2023-04-20T04:22:24;98394.41;;;27.30;31.33
14902;BME280;7542;49.078;9.194;2023-04-20T04:23:26;98403.59;;;27.29;31.34
14902;BME280;7542;49.078;9.194;2023-04-20T04:24:28;98396.31;;;27.30;31.20
14902;BME280;7542;49.078;9.194;2023-04-20T04:25:30;98397.13;;;27.30;31.24
14902;BME280;7542;49.078;9.194;2023-04-20T04:26:32;98394.72;;;27.29;31.20
14902;BME280;7542;49.078;9.194;2023-04-20T04:27:34;98398.72;;;27.31;31.21
14902;BME280;7542;49.078;9.194;2023-04-20T04:28:36;98398.44;;;27.33;31.25
14902;BME280;7542;49.078;9.194;2023-04-20T04:29:38;98399.00;;;27.30;31.27
14902;BME280;7542;49.078;9.194;2023-04-20T04:30:42;98403.00;;;27.32;31.38
14902;BME280;7542;49.078;9.194;2023-04-20T04:31:44;98400.91;;;27.29;31.13
14902;BME280;7542;49.078;9.194;2023-04-20T04:32:46;98396.03;;;27.31;31.31
14902;BME280;7542;49.078;9.194;2023-04-20T04:33:49;98396.81;;;27.32;31.29
14902;BME280;7542;49.078;9.194;2023-04-20T04:34:52;98399.00;;;27.30;31.23
14902;BME280;7542;49.078;9.194;2023-04-20T04:35:54;98393.91;;;27.28;31.36
14902;BME280;7542;49.078;9.194;2023-04-20T04:36:56;98404.69;;;27.28;31.40
14902;BME280;7542;49.078;9.194;2023-04-20T04:37:58;98395.00;;;27.27;31.31
14902;BME280;7542;49.078;9.194;2023-04-20T04:39:00;98401.41;;;27.31;31.23
14902;BME280;7542;49.078;9.194;2023-04-20T04:40:03;98400.91;;;27.29;31.17
14902;BME280;7542;49.078;9.194;2023-04-20T04:41:07;98401.69;;;27.30;31.29
14902;BME280;7542;49.078;9.194;2023-04-20T04:42:08;98397.41;;;27.29;31.28
14902;BME280;7542;49.078;9.194;2023-04-20T04:43:10;98403.59;;;27.29;31.20
14902;BME280;7542;49.078;9.194;2023-04-20T04:44:13;98401.19;;;27.28;31.27
14902;BME280;7542;49.078;9.194;2023-04-20T04:45:16;98399.28;;;27.28;31.29
14902;BME280;7542;49.078;9.194;2023-04-20T04:46:19;98397.13;;;27.30;31.07
14902;BME280;7542;49.078;9.194;2023-04-20T04:47:22;98398.50;;;27.28;31.29
14902;BME280;7542;49.078;9.194;2023-04-20T04:48:24;98395.00;;;27.27;31.31
14902;BME280;7542;49.078;9.194;2023-04-20T04:49:26;98389.59;;;27.27;31.15
14902;BME280;7542;49.078;9.194;2023-04-20T04:50:28;98390.41;;;27.28;31.33
14902;BME280;7542;49.078;9.194;2023-04-20T04:51:30;98398.50;;;27.28;31.24
14902;BME280;7542;49.078;9.194;2023-04-20T04:52:32;98395.78;;;27.28;31.13
14902;BME280;7542;49.078;9.194;2023-04-20T04:53:35;98389.09;;;27.25;31.12
14902;BME280;7542;49.078;9.194;2023-04-20T04:54:37;98396.09;;;27.26;31.16
14902;BME280;7542;49.078;9.194;2023-04-20T04:55:39;98390.69;;;27.26;31.20
14902;BME280;7542;49.078;9.194;2023-04-20T04:56:41;98387.22;;;27.26;31.01
14902;BME280;7542;49.078;9.194;2023-04-20T04:57:43;98394.19;;;27.27;31.08
14902;BME280;7542;49.078;9.194;2023-04-20T04:58:45;98391.00;;;27.25;31.21
14902;BME280;7542;49.078;9.194;2023-04-20T04:59:47;98391.78;;;27.25;31.20
14902;BME280;7542;49.078;9.194;2023-04-20T05:00:49;98387.22;;;27.26;31.14
14902;BME280;7542;49.078;9.194;2023-04-20T05:01:51;98391.00;;;27.25;31.20
14902;BME280;7542;49.078;9.194;2023-04-20T05:02:53;98382.91;;;27.25;31.22
14902;BME280;7542;49.078;9.194;2023-04-20T05:03:56;98393.38;;;27.26;31.06
14902;BME280;7542;49.078;9.194;2023-04-20T05:04:58;98389.09;;;27.25;31.28
14902;BME280;7542;49.078;9.194;2023-04-20T05:06:00;98385.31;;;27.26;31.16
14902;BME280;7542;49.078;9.194;2023-04-20T05:07:02;98389.34;;;27.24;31.02
14902;BME280;7542;49.078;9.194;2023-04-20T05:08:04;98390.16;;;27.24;31.02
14902;BME280;7542;49.078;9.194;2023-04-20T05:09:06;98389.09;;;27.25;31.20
14902;BME280;7542;49.078;9.194;2023-04-20T05:10:08;98390.44;;;27.23;31.05
14902;BME280;7542;49.078;9.194;2023-04-20T05:11:10;98386.66;;;27.24;31.14
14902;BME280;7542;49.078;9.194;2023-04-20T05:12:12;98387.75;;;27.23;30.89
14902;BME280;7542;49.078;9.194;2023-04-20T05:13:14;98385.34;;;27.21;31.15
14902;BME280;7542;49.078;9.194;2023-04-20T05:14:16;98386.66;;;27.24;30.94
14902;BME280;7542;49.078;9.194;2023-04-20T05:15:18;98389.94;;;27.21;31.06
14902;BME280;7542;49.078;9.194;2023-04-20T05:16:20;98393.41;;;27.21;31.06
14902;BME280;7542;49.078;9.194;2023-04-20T05:17:22;98388.31;;;27.20;31.04
14902;BME280;7542;49.078;9.194;2023-04-20T05:18:24;98394.22;;;27.22;31.03
14902;BME280;7542;49.078;9.194;2023-04-20T05:19:26;98389.13;;;27.20;31.12
14902;BME280;7542;49.078;9.194;2023-04-20T05:20:28;98386.44;;;27.20;31.06
14902;BME280;7542;49.078;9.194;2023-04-20T05:21:30;98389.94;;;27.21;31.09
14902;BME280;7542;49.078;9.194;2023-04-20T05:22:33;98387.22;;;27.21;30.91
14902;BME280;7542;49.078;9.194;2023-04-20T05:23:35;98392.91;;;27.19;30.97
14902;BME280;7542;49.078;9.194;2023-04-20T05:24:37;98389.41;;;27.19;30.85
14902;BME280;7542;49.078;9.194;2023-04-20T05:25:39;98391.59;;;27.17;31.23
14902;BME280;7542;49.078;9.194;2023-04-20T05:26:41;98392.91;;;27.19;31.10
14902;BME280;7542;49.078;9.194;2023-04-20T05:27:43;98394.78;;;27.19;30.97
14902;BME280;7542;49.078;9.194;2023-04-20T05:28:45;98391.31;;;27.18;30.94
14902;BME280;7542;49.078;9.194;2023-04-20T05:29:47;98393.72;;;27.20;31.03
14902;BME280;7542;49.078;9.194;2023-04-20T05:30:49;98388.59;;;27.18;30.93
14902;BME280;7542;49.078;9.194;2023-04-20T05:31:51;98387.00;;;27.17;30.76
14902;BME280;7542;49.078;9.194;2023-04-20T05:32:53;98391.31;;;27.18;30.79
14902;BME280;7542;49.078;9.194;2023-04-20T05:33:55;98389.69;;;27.17;30.86